createdAt,value
2023-01-23T00:01:30.998Z,103539.50
2023-01-23T00:04:00.612Z,103541.53
2023-01-23T00:06:29.247Z,103546.66
2023-01-23T00:08:57.263Z,103550.25
2023-01-23T00:11:27.147Z,103547.41
2023-01-23T00:13:57.690Z,103546.88
2023-01-23T00:16:27.241Z,103550.59
2023-01-23T00:18:55.111Z,103548.06
2023-01-23T00:21:25.941Z,103543.75
2023-01-23T00:23:55.795Z,103550.75
2023-01-23T00:26:25.188Z,103552.97
2023-01-23T00:28:53.357Z,103546.47
2023-01-23T00:31:25.742Z,103551.97
2023-01-23T00:33:56.189Z,103551.19
2023-01-23T00:36:23.999Z,103552.13
2023-01-23T00:38:51.838Z,103546.38
2023-01-23T00:41:19.666Z,103547.97
2023-01-23T00:43:48.317Z,103547.28
2023-01-23T00:46:17.963Z,103555.06
2023-01-23T00:48:47.279Z,103550.78
2023-01-23T00:51:15.185Z,103555.47
2023-01-23T00:53:43.172Z,103542.97
2023-01-23T00:56:11.042Z,103542.19
2023-01-23T00:58:40.510Z,103542.75
2023-01-23T01:01:09.105Z,103548.59
2023-01-23T01:03:37.822Z,103546.81
2023-01-23T01:06:07.200Z,103535.69
2023-01-23T01:08:35.031Z,103532.09
2023-01-23T01:11:02.865Z,103527.44
2023-01-23T01:13:32.095Z,103526.41
2023-01-23T01:16:01.818Z,103525.41
2023-01-23T01:18:30.801Z,103523.94
2023-01-23T01:20:59.065Z,103523.53
2023-01-23T01:23:28.399Z,103517.78
2023-01-23T01:26:00.118Z,103520.81
2023-01-23T01:28:30.241Z,103529.09
2023-01-23T01:30:58.479Z,103539.28
2023-01-23T01:33:28.616Z,103533.34
2023-01-23T01:35:57.255Z,103531.06
2023-01-23T01:38:25.430Z,103544.38
2023-01-23T01:40:54.670Z,103544.47
2023-01-23T01:43:24.803Z,103543.91
2023-01-23T01:46:20.886Z,103545.59
2023-01-23T01:49:01.932Z,103533.38
2023-01-23T01:51:32.912Z,103542.44
2023-01-23T01:54:07.206Z,103538.31
2023-01-23T01:56:41.812Z,103545.72
2023-01-23T01:59:12.108Z,103544.94
2023-01-23T02:01:41.815Z,103546.38
2023-01-23T02:04:10.833Z,103544.16
2023-01-23T02:06:38.639Z,103550.22
2023-01-23T02:09:11.870Z,103547.16
2023-01-23T02:11:41.158Z,103546.50
2023-01-23T02:14:10.268Z,103543.28
2023-01-23T02:16:41.139Z,103545.84
2023-01-23T02:19:18.293Z,103552.22
2023-01-23T02:21:49.270Z,103553.16
2023-01-23T02:24:24.783Z,103556.25
2023-01-23T02:26:55.230Z,103559.72
2023-01-23T02:29:25.781Z,103556.91
2023-01-23T02:31:56.795Z,103562.88
2023-01-23T02:34:26.091Z,103558.41
2023-01-23T02:36:58.595Z,103562.81
2023-01-23T02:39:27.571Z,103566.63
2023-01-23T02:41:58.797Z,103565.03
2023-01-23T02:44:40.959Z,103566.63
2023-01-23T02:47:12.353Z,103561.66
2023-01-23T02:49:42.744Z,103570.34
2023-01-23T02:52:10.980Z,103577.91
2023-01-23T02:54:40.351Z,103582.63
2023-01-23T02:57:09.634Z,103579.63
2023-01-23T02:59:54.806Z,103584.53
2023-01-23T03:02:22.818Z,103584.06
2023-01-23T03:04:50.686Z,103578.22
2023-01-23T03:07:18.471Z,103590.94
2023-01-23T03:09:48.748Z,103584.06
2023-01-23T03:12:18.230Z,103579.00
2023-01-23T03:14:46.142Z,103578.75
2023-01-23T03:17:14.873Z,103577.50
2023-01-23T03:19:43.130Z,103576.22
2023-01-23T03:22:11.053Z,103579.00
2023-01-23T03:24:40.204Z,103580.25
2023-01-23T03:27:08.635Z,103576.25
2023-01-23T03:30:02.454Z,103580.50
2023-01-23T03:32:30.846Z,103575.44
2023-01-23T03:34:59.377Z,103577.97
2023-01-23T03:37:27.351Z,103588.56
2023-01-23T03:40:13.783Z,103582.69
2023-01-23T03:42:41.797Z,103577.19
2023-01-23T03:45:13.321Z,103581.47
2023-01-23T03:47:42.577Z,103574.97
2023-01-23T03:50:11.344Z,103572.59
2023-01-23T03:52:40.577Z,103574.63
2023-01-23T03:55:09.804Z,103577.78
2023-01-23T03:57:38.547Z,103581.72
2023-01-23T04:00:09.938Z,103583.94
2023-01-23T04:02:51.035Z,103586.19
2023-01-23T04:05:18.863Z,103587.78
2023-01-23T04:07:46.658Z,103586.84
2023-01-23T04:10:15.185Z,103587.63
2023-01-23T04:12:45.254Z,103583.56
2023-01-23T04:15:13.739Z,103582.97
2023-01-23T04:17:42.553Z,103582.44
2023-01-23T04:20:13.849Z,103593.38
2023-01-23T04:22:43.610Z,103597.09
2023-01-23T04:25:11.823Z,103600.72
2023-01-23T04:27:39.762Z,103600.50
2023-01-23T04:30:10.435Z,103606.69
2023-01-23T04:32:38.529Z,103600.19
2023-01-23T04:35:07.225Z,103600.50
2023-01-23T04:37:38.974Z,103600.72
2023-01-23T04:40:08.893Z,103594.09
2023-01-23T04:42:45.808Z,103601.16
2023-01-23T04:45:27.762Z,103597.22
2023-01-23T04:48:18.453Z,103601.69
2023-01-23T04:50:46.248Z,103605.97
2023-01-23T04:53:15.516Z,103598.00
2023-01-23T04:55:44.431Z,103596.63
2023-01-23T04:58:15.306Z,103600.31
2023-01-23T05:00:43.151Z,103603.69
2023-01-23T05:03:11.040Z,103598.75
2023-01-23T05:05:44.236Z,103598.28
2023-01-23T05:08:12.648Z,103605.25
2023-01-23T05:10:43.444Z,103602.09
2023-01-23T05:13:14.142Z,103608.94
2023-01-23T05:15:41.939Z,103610.63
2023-01-23T05:18:09.803Z,103610.00
2023-01-23T05:20:37.728Z,103615.19
2023-01-23T05:23:06.204Z,103619.31
2023-01-23T05:25:43.160Z,103607.41
2023-01-23T05:28:11.863Z,103616.94
2023-01-23T05:30:45.817Z,103629.50
2023-01-23T05:33:23.002Z,103620.94
2023-01-23T05:35:51.300Z,103620.16
2023-01-23T05:38:19.780Z,103620.63
2023-01-23T05:40:49.056Z,103621.88
2023-01-23T05:43:36.436Z,103620.78
2023-01-23T05:46:21.608Z,103626.16
2023-01-23T05:48:53.286Z,103624.56
2023-01-23T05:51:23.237Z,103624.56
2023-01-23T05:53:52.155Z,103625.50
2023-01-23T05:56:21.311Z,103623.94
2023-01-23T05:59:07.468Z,103628.41
2023-01-23T06:01:42.125Z,103630.03
2023-01-23T06:04:30.182Z,103622.94
2023-01-23T06:07:17.902Z,103624.97
2023-01-23T06:09:46.846Z,103617.22
2023-01-23T06:12:16.049Z,103626.88
2023-01-23T06:14:43.904Z,103631.81
2023-01-23T06:17:13.435Z,103621.81
2023-01-23T06:19:41.264Z,103619.34
2023-01-23T06:22:09.760Z,103618.41
2023-01-23T06:24:55.762Z,103630.09
2023-01-23T06:27:24.950Z,103632.59
2023-01-23T06:29:53.358Z,103636.53
2023-01-23T06:32:23.441Z,103643.63
2023-01-23T06:34:52.214Z,103639.63
2023-01-23T06:37:20.077Z,103653.56
2023-01-23T06:39:47.867Z,103655.59
2023-01-23T06:42:17.021Z,103665.41
2023-01-23T06:44:50.633Z,103660.59
2023-01-23T06:47:18.965Z,103670.72
2023-01-23T06:49:52.057Z,103673.75
2023-01-23T06:52:19.975Z,103680.06
2023-01-23T06:54:48.617Z,103677.38
2023-01-23T06:57:17.325Z,103678.47
2023-01-23T06:59:47.602Z,103664.63
2023-01-23T07:02:18.308Z,103672.22
2023-01-23T07:04:48.690Z,103666.03
2023-01-23T07:07:16.474Z,103666.59
2023-01-23T07:09:45.244Z,103667.09
2023-01-23T07:12:25.343Z,103655.19
2023-01-23T07:14:53.159Z,103648.72
2023-01-23T07:17:30.414Z,103654.22
2023-01-23T07:19:58.290Z,103659.28
2023-01-23T07:22:26.353Z,103661.03
2023-01-23T07:24:54.186Z,103658.50
2023-01-23T07:27:22.001Z,103654.88
2023-01-23T07:29:49.789Z,103662.66
2023-01-23T07:32:17.641Z,103659.59
2023-01-23T07:34:46.774Z,103676.22
2023-01-23T07:37:14.633Z,103682.56
2023-01-23T07:39:42.402Z,103667.75
2023-01-23T07:42:10.519Z,103665.88
2023-01-23T07:44:42.309Z,103666.19
2023-01-23T07:47:10.548Z,103670.44
2023-01-23T07:49:38.328Z,103672.16
2023-01-23T07:52:07.790Z,103684.25
2023-01-23T07:54:35.710Z,103705.03
2023-01-23T07:57:03.623Z,103713.50
2023-01-23T07:59:31.415Z,103713.09
2023-01-23T08:01:59.413Z,103712.75
2023-01-23T08:04:27.193Z,103727.94
2023-01-23T08:06:55.827Z,103729.34
2023-01-23T08:09:26.526Z,103717.38
2023-01-23T08:11:54.355Z,103714.50
2023-01-23T08:14:22.241Z,103723.38
2023-01-23T08:16:51.174Z,103720.03
2023-01-23T08:19:19.099Z,103726.19
2023-01-23T08:21:47.912Z,103725.06
2023-01-23T08:24:16.069Z,103732.84
2023-01-23T08:26:45.446Z,103732.06
2023-01-23T08:29:13.640Z,103733.44
2023-01-23T08:31:41.700Z,103733.25
2023-01-23T08:34:09.521Z,103739.69
2023-01-23T08:36:37.437Z,103737.56
2023-01-23T08:39:05.778Z,103732.53
2023-01-23T08:41:33.557Z,103732.06
2023-01-23T08:44:03.917Z,103736.47
2023-01-23T08:46:31.787Z,103732.16
2023-01-23T08:48:59.610Z,103732.31
2023-01-23T08:51:27.852Z,103727.38
2023-01-23T08:53:55.692Z,103733.94
2023-01-23T08:56:25.080Z,103737.44
2023-01-23T08:58:53.062Z,103741.94
2023-01-23T09:01:24.303Z,103742.41
2023-01-23T09:03:52.439Z,103757.13
2023-01-23T09:06:22.034Z,103757.91
2023-01-23T09:08:50.123Z,103765.94
2023-01-23T09:11:18.950Z,103757.31
2023-01-23T09:13:47.724Z,103766.53
2023-01-23T09:16:16.229Z,103763.63
2023-01-23T09:18:45.478Z,103759.47
2023-01-23T09:21:15.713Z,103756.25
2023-01-23T09:23:43.749Z,103771.00
2023-01-23T09:26:13.378Z,103765.06
2023-01-23T09:28:43.088Z,103755.63
2023-01-23T09:31:12.991Z,103758.41
2023-01-23T09:33:42.009Z,103765.38
2023-01-23T09:36:12.286Z,103758.34
2023-01-23T09:38:40.127Z,103756.88
2023-01-23T09:41:17.791Z,103767.34
2023-01-23T09:43:54.630Z,103772.06
2023-01-23T09:46:27.265Z,103771.38
2023-01-23T09:49:01.439Z,103776.34
2023-01-23T09:51:42.404Z,103781.53
2023-01-23T09:54:21.501Z,103771.94
2023-01-23T09:56:50.330Z,103776.81
2023-01-23T09:59:30.306Z,103778.59
2023-01-23T10:01:58.489Z,103780.75
2023-01-23T10:04:26.308Z,103775.09
2023-01-23T10:07:14.767Z,103781.97
2023-01-23T10:10:00.550Z,103780.84
2023-01-23T10:12:40.756Z,103789.59
2023-01-23T10:15:20.670Z,103785.56
2023-01-23T10:18:00.111Z,103785.06
2023-01-23T10:20:49.335Z,103774.94
2023-01-23T10:23:30.233Z,103762.97
2023-01-23T10:25:58.488Z,103768.00
2023-01-23T10:28:34.991Z,103761.00
2023-01-23T10:31:08.821Z,103772.34
2023-01-23T10:33:43.725Z,103766.69
2023-01-23T10:36:24.012Z,103759.91
2023-01-23T10:39:01.623Z,103748.22
2023-01-23T10:41:29.389Z,103750.25
2023-01-23T10:43:58.041Z,103758.03
2023-01-23T10:46:31.952Z,103750.78
2023-01-23T10:49:03.434Z,103762.69
2023-01-23T10:51:45.637Z,103758.59
2023-01-23T10:54:31.240Z,103753.34
2023-01-23T10:57:01.619Z,103749.31
2023-01-23T10:59:36.640Z,103763.72
2023-01-23T11:02:20.111Z,103759.19
2023-01-23T11:04:51.391Z,103757.59
2023-01-23T11:07:20.552Z,103761.91
2023-01-23T11:09:50.913Z,103758.38
2023-01-23T11:12:21.226Z,103764.44
2023-01-23T11:14:49.520Z,103763.28
2023-01-23T11:17:21.635Z,103773.44
2023-01-23T11:19:54.257Z,103766.59
2023-01-23T11:22:29.032Z,103768.97
2023-01-23T11:24:58.866Z,103759.53
2023-01-23T11:27:29.794Z,103758.31
2023-01-23T11:30:19.679Z,103766.59
2023-01-23T11:32:55.047Z,103760.50
2023-01-23T11:35:28.474Z,103764.69
2023-01-23T11:37:58.128Z,103766.19
2023-01-23T11:40:27.289Z,103773.53
2023-01-23T11:42:55.941Z,103767.41
2023-01-23T11:45:34.889Z,103769.50
2023-01-23T11:48:18.174Z,103778.41
2023-01-23T11:50:55.315Z,103769.78
2023-01-23T11:53:42.053Z,103769.59
2023-01-23T11:56:38.201Z,103770.22
2023-01-23T11:59:25.925Z,103760.81
2023-01-23T12:02:15.018Z,103762.47
2023-01-23T12:05:08.224Z,103764.56
2023-01-23T12:07:46.471Z,103763.25
2023-01-23T12:10:23.782Z,103760.81
2023-01-23T12:13:02.235Z,103755.66
2023-01-23T12:15:37.185Z,103751.47
2023-01-23T12:18:21.625Z,103754.28
2023-01-23T12:20:58.026Z,103762.34
2023-01-23T12:23:45.484Z,103757.63
2023-01-23T12:26:16.524Z,103753.28
2023-01-23T12:29:15.603Z,103755.72
2023-01-23T12:32:02.834Z,103752.94
2023-01-23T12:34:48.523Z,103756.59
2023-01-23T12:37:31.176Z,103756.78
2023-01-23T12:40:08.462Z,103750.91
2023-01-23T12:42:42.253Z,103753.34
2023-01-23T12:45:19.029Z,103752.56
2023-01-23T12:47:55.013Z,103753.53
2023-01-23T12:50:36.050Z,103750.03
2023-01-23T12:53:08.598Z,103759.72
2023-01-23T12:55:39.597Z,103760.16
2023-01-23T12:58:13.480Z,103773.28
2023-01-23T13:00:53.451Z,103766.84
2023-01-23T13:03:46.857Z,103759.28
2023-01-23T13:06:31.109Z,103762.78
2023-01-23T13:09:16.657Z,103761.28
2023-01-23T13:11:55.233Z,103763.84
2023-01-23T13:14:32.751Z,103760.34
2023-01-23T13:17:04.627Z,103755.28
2023-01-23T13:19:51.517Z,103762.19
2023-01-23T13:22:29.326Z,103757.38
2023-01-23T13:25:14.069Z,103762.13
2023-01-23T13:27:47.344Z,103766.16
2023-01-23T13:30:44.014Z,103768.56
2023-01-23T13:33:58.727Z,103762.59
2023-01-23T13:36:36.542Z,103767.56
2023-01-23T13:39:27.096Z,103766.78
2023-01-23T13:42:35.626Z,103768.16
2023-01-23T13:45:29.948Z,103775.44
2023-01-23T14:20:24.488Z,103714.00
2023-01-23T14:22:55.841Z,103711.22
2023-01-23T14:25:23.797Z,103696.41
2023-01-23T14:28:03.931Z,103701.75
2023-01-23T14:30:33.215Z,103705.34
2023-01-23T14:33:01.121Z,103709.88
2023-01-23T14:35:30.725Z,103703.50
2023-01-23T14:38:01.238Z,103699.56
2023-01-23T14:40:37.414Z,103689.84
2023-01-23T14:43:09.863Z,103697.19
2023-01-23T14:45:39.338Z,103704.00
2023-01-23T14:48:14.614Z,103703.13
2023-01-23T14:50:42.849Z,103704.94
2023-01-23T14:53:14.897Z,103713.94
2023-01-23T14:55:47.189Z,103720.94
2023-01-23T14:58:21.747Z,103715.84
2023-01-23T15:00:53.142Z,103717.78
2023-01-23T15:03:39.301Z,103715.41
2023-01-23T15:06:12.568Z,103704.94
2023-01-23T15:08:40.897Z,103715.59
2023-01-23T15:11:12.030Z,103717.97
2023-01-23T15:13:46.289Z,103718.38
2023-01-23T15:16:20.696Z,103719.25
2023-01-23T15:18:59.711Z,103727.03
2023-01-23T15:21:31.790Z,103730.84
2023-01-23T15:24:04.171Z,103737.88
2023-01-23T15:26:35.236Z,103741.00
2023-01-23T15:29:05.167Z,103743.03
2023-01-23T15:31:36.496Z,103757.38
2023-01-23T15:34:21.393Z,103743.41
2023-01-23T15:36:51.933Z,103741.25
2023-01-23T15:39:23.328Z,103736.28
2023-01-23T15:41:52.775Z,103738.09
2023-01-23T15:44:22.654Z,103738.59
2023-01-23T15:46:52.031Z,103739.72
2023-01-23T15:49:25.816Z,103738.50
2023-01-23T15:51:56.665Z,103733.69
2023-01-23T15:54:29.472Z,103731.09
2023-01-23T15:57:07.244Z,103734.50
2023-01-23T15:59:36.941Z,103731.34
2023-01-23T16:02:08.219Z,103731.59
2023-01-23T16:04:38.841Z,103734.75
2023-01-23T16:07:08.421Z,103730.28
2023-01-23T16:09:38.951Z,103724.41
2023-01-23T16:12:15.540Z,103729.81
2023-01-23T16:14:43.314Z,103727.69
2023-01-23T16:17:16.992Z,103738.75
2023-01-23T16:19:45.585Z,103735.69
2023-01-23T16:22:23.387Z,103734.81
2023-01-23T16:24:51.394Z,103742.69
2023-01-23T16:27:22.934Z,103747.41
2023-01-23T16:29:50.732Z,103745.69
2023-01-23T16:32:19.982Z,103742.69
2023-01-23T16:34:47.998Z,103758.66
2023-01-23T16:37:18.705Z,103763.06
2023-01-23T16:39:47.670Z,103765.44
2023-01-23T16:42:20.158Z,103762.59
2023-01-23T16:44:47.939Z,103767.44
2023-01-23T16:47:15.886Z,103766.88
2023-01-23T16:49:54.030Z,103769.91
2023-01-23T16:52:26.154Z,103773.53
2023-01-23T16:54:55.557Z,103782.41
2023-01-23T16:57:24.586Z,103779.50
2023-01-23T16:59:53.154Z,103781.06
2023-01-23T17:02:23.877Z,103785.56
2023-01-23T17:04:53.268Z,103786.25
2023-01-23T17:07:21.406Z,103777.81
2023-01-23T17:09:50.035Z,103784.34
2023-01-23T17:12:21.604Z,103779.63
2023-01-23T17:14:52.451Z,103784.25
2023-01-23T17:17:22.722Z,103783.44
2023-01-23T17:19:50.603Z,103783.00
2023-01-23T17:22:24.518Z,103781.75
2023-01-23T17:24:52.534Z,103781.41
2023-01-23T17:27:20.396Z,103788.50
2023-01-23T17:29:49.125Z,103786.25
2023-01-23T17:32:27.953Z,103786.72
2023-01-23T17:34:56.121Z,103788.59
2023-01-23T17:37:25.520Z,103785.81
2023-01-23T17:39:53.378Z,103790.97
2023-01-23T17:42:22.024Z,103788.72
2023-01-23T17:44:50.626Z,103798.84
2023-01-23T17:47:19.023Z,103796.06
2023-01-23T17:49:54.282Z,103803.47
2023-01-23T17:52:22.467Z,103797.41
2023-01-23T17:54:51.688Z,103806.41
2023-01-23T17:57:19.499Z,103810.34
2023-01-23T17:59:47.378Z,103806.53
2023-01-23T18:02:26.621Z,103814.28
2023-01-23T18:04:54.895Z,103809.91
2023-01-23T18:07:22.829Z,103811.50
2023-01-23T18:09:52.472Z,103813.72
2023-01-23T18:12:30.054Z,103815.97
2023-01-23T18:15:06.101Z,103815.63
2023-01-23T18:17:41.016Z,103814.50
2023-01-23T18:20:17.556Z,103815.75
2023-01-23T18:22:46.025Z,103817.31
2023-01-23T18:25:17.154Z,103808.56
2023-01-23T18:27:50.099Z,103820.47
2023-01-23T18:30:34.307Z,103823.19
2023-01-23T18:33:23.670Z,103824.78
2023-01-23T18:36:04.478Z,103828.81
2023-01-23T18:38:39.780Z,103822.75
2023-01-23T18:41:15.447Z,103818.69
2023-01-23T18:43:48.643Z,103827.38
2023-01-23T18:46:18.639Z,103818.59
2023-01-23T18:48:49.491Z,103825.13
2023-01-23T18:51:29.894Z,103820.59
2023-01-23T18:54:10.243Z,103816.34
2023-01-23T18:56:55.848Z,103809.34
2023-01-23T18:59:29.951Z,103819.59
2023-01-23T19:02:09.423Z,103813.59
2023-01-23T19:04:45.728Z,103824.31
2023-01-23T19:07:18.384Z,103820.84
2023-01-23T19:09:47.520Z,103822.84
2023-01-23T19:12:26.689Z,103821.84
2023-01-23T19:15:06.150Z,103819.25
2023-01-23T19:17:43.692Z,103817.91
2023-01-23T19:20:23.882Z,103825.09
2023-01-23T19:23:02.696Z,103820.00
2023-01-23T19:25:31.066Z,103816.53
2023-01-23T19:28:01.856Z,103817.84
2023-01-23T19:30:30.451Z,103815.16
2023-01-23T19:32:58.272Z,103819.78
2023-01-23T19:35:26.136Z,103822.03
2023-01-23T19:37:53.994Z,103823.81
2023-01-23T19:40:21.795Z,103826.19
2023-01-23T19:42:58.641Z,103831.72
2023-01-23T19:45:34.862Z,103826.31
2023-01-23T19:48:02.656Z,103829.47
2023-01-23T19:50:30.460Z,103828.44
2023-01-23T19:53:00.213Z,103829.88
2023-01-23T19:55:31.373Z,103841.16
2023-01-23T19:57:59.491Z,103844.16
2023-01-23T20:00:29.621Z,103844.63
2023-01-23T20:02:59.146Z,103843.53
2023-01-23T20:05:27.483Z,103846.34
2023-01-23T20:07:55.356Z,103849.50
2023-01-23T20:10:23.421Z,103849.50
2023-01-23T20:12:54.421Z,103855.56
2023-01-23T20:15:24.256Z,103857.34
2023-01-23T20:17:52.985Z,103850.56
2023-01-23T20:20:22.982Z,103852.94
2023-01-23T20:22:51.053Z,103852.50
2023-01-23T20:25:19.297Z,103853.63
2023-01-23T20:27:47.217Z,103849.13
2023-01-23T20:30:18.564Z,103855.13
2023-01-23T20:32:46.457Z,103859.50
2023-01-23T20:35:14.244Z,103863.13
2023-01-23T20:37:43.394Z,103861.88
2023-01-23T20:40:12.442Z,103862.44
2023-01-23T20:42:41.295Z,103865.31
2023-01-23T20:45:09.921Z,103858.69
2023-01-23T20:47:37.934Z,103863.44
2023-01-23T20:50:06.481Z,103863.88
2023-01-23T20:52:51.597Z,103861.97
2023-01-23T20:55:21.064Z,103854.78
2023-01-23T20:58:06.766Z,103858.13
2023-01-23T21:00:34.579Z,103860.06
2023-01-23T21:03:02.379Z,103858.50
2023-01-23T21:05:30.193Z,103853.72
2023-01-23T21:07:58.019Z,103860.84
2023-01-23T21:10:27.190Z,103860.84
2023-01-23T21:12:54.993Z,103851.50
2023-01-23T21:15:23.271Z,103853.88
2023-01-23T21:17:51.331Z,103859.91
2023-01-23T21:20:19.209Z,103857.44
2023-01-23T21:22:47.536Z,103862.97
2023-01-23T21:25:15.392Z,103869.63
2023-01-23T21:27:44.550Z,103867.59
2023-01-23T21:30:13.089Z,103864.22
2023-01-23T21:32:40.869Z,103870.63
2023-01-23T21:35:09.571Z,103873.53
2023-01-23T21:37:37.551Z,103864.66
2023-01-23T21:40:06.402Z,103858.88
2023-01-23T21:42:34.189Z,103857.78
2023-01-23T21:45:03.365Z,103862.84
2023-01-23T21:47:31.154Z,103858.44
2023-01-23T21:49:58.894Z,103851.31
2023-01-23T21:52:26.719Z,103851.47
2023-01-23T21:54:56.119Z,103849.44
2023-01-23T21:57:24.693Z,103850.09
2023-01-23T22:00:06.430Z,103861.22
2023-01-23T22:02:49.134Z,103874.59
2023-01-23T22:05:20.125Z,103864.56
2023-01-23T22:07:48.522Z,103873.91
2023-01-23T22:10:17.027Z,103869.34
2023-01-23T22:12:44.803Z,103876.63
2023-01-23T22:15:12.777Z,103870.78
2023-01-23T22:17:41.916Z,103878.06
2023-01-23T22:20:11.311Z,103877.28
2023-01-23T22:22:39.096Z,103874.59
2023-01-23T22:25:08.030Z,103877.63
2023-01-23T22:27:36.074Z,103875.72
2023-01-23T22:30:04.914Z,103873.13
2023-01-23T22:32:34.445Z,103881.13
2023-01-23T22:35:03.686Z,103879.66
2023-01-23T22:37:31.782Z,103883.16
2023-01-23T22:39:59.600Z,103876.84
2023-01-23T22:42:27.411Z,103878.88
2023-01-23T22:44:55.231Z,103880.19
2023-01-23T22:47:23.025Z,103879.59
2023-01-23T22:49:50.850Z,103875.47
2023-01-23T22:52:20.025Z,103886.06
2023-01-23T22:54:47.906Z,103883.13
2023-01-23T22:57:15.705Z,103880.41
2023-01-23T22:59:43.476Z,103877.50
2023-01-23T23:02:11.283Z,103874.47
2023-01-23T23:04:39.075Z,103877.97
2023-01-23T23:07:06.882Z,103874.81
2023-01-23T23:09:36.038Z,103874.47
2023-01-23T23:12:03.981Z,103879.88
2023-01-23T23:14:31.742Z,103876.03
2023-01-23T23:16:59.761Z,103877.81
2023-01-23T23:19:27.574Z,103882.75
2023-01-23T23:21:55.408Z,103881.19
2023-01-23T23:24:23.253Z,103878.50
2023-01-23T23:26:52.445Z,103878.50
2023-01-23T23:29:20.241Z,103879.94
2023-01-23T23:31:51.560Z,103879.28
2023-01-23T23:34:19.948Z,103876.13
2023-01-23T23:36:47.950Z,103874.19
2023-01-23T23:39:15.728Z,103883.31
2023-01-23T23:41:43.522Z,103875.53
2023-01-23T23:44:12.744Z,103878.69
2023-01-23T23:46:40.565Z,103880.78
2023-01-23T23:49:08.386Z,103885.41
2023-01-23T23:51:36.141Z,103878.69
2023-01-23T23:54:04.144Z,103882.97
2023-01-23T23:56:32.207Z,103871.06
2023-01-23T23:59:00.049Z,103872.06
